sensor_id;sensor_type;location;lat;lon;timestamp;P1;durP1;ratioP1;P2;durP2;ratioP2
22439;SDS011;11387;51.612;7.210;2024-02-26T00:01:12;4.05;;;2.55;;
22439;SDS011;11387;51.612;7.210;2024-02-26T00:03:36;6.40;;;2.65;;
22439;SDS011;11387;51.612;7.210;2024-02-26T00:05:59;7.05;;;2.72;;
22439;SDS011;11387;51.612;7.210;2024-02-26T00:08:23;6.28;;;2.63;;
22439;SDS011;11387;51.612;7.210;2024-02-26T00:10:47;6.13;;;2.92;;
22439;SDS011;11387;51.612;7.210;2024-02-26T00:13:10;5.53;;;2.13;;
22439;SDS011;11387;51.612;7.210;2024-02-26T00:15:36;5.15;;;2.70;;
22439;SDS011;11387;51.612;7.210;2024-02-26T00:18:00;4.78;;;2.15;;
22439;SDS011;11387;51.612;7.210;2024-02-26T00:20:24;5.72;;;2.55;;
22439;SDS011;11387;51.612;7.210;2024-02-26T00:22:47;5.65;;;3.35;;
22439;SDS011;11387;51.612;7.210;2024-02-26T00:25:11;5.63;;;3.00;;
22439;SDS011;11387;51.612;7.210;2024-02-26T00:27:36;4.90;;;2.00;;
22439;SDS011;11387;51.612;7.210;2024-02-26T00:30:01;4.80;;;2.08;;
22439;SDS011;11387;51.612;7.210;2024-02-26T00:32:28;5.18;;;2.03;;
22439;SDS011;11387;51.612;7.210;2024-02-26T00:34:56;5.82;;;2.38;;
22439;SDS011;11387;51.612;7.210;2024-02-26T00:37:19;3.55;;;1.70;;
22439;SDS011;11387;51.612;7.210;2024-02-26T00:39:46;4.72;;;2.25;;
22439;SDS011;11387;51.612;7.210;2024-02-26T00:42:09;3.60;;;1.98;;
22439;SDS011;11387;51.612;7.210;2024-02-26T00:44:33;3.38;;;2.10;;
22439;SDS011;11387;51.612;7.210;2024-02-26T00:46:57;4.80;;;2.42;;
22439;SDS011;11387;51.612;7.210;2024-02-26T00:49:24;4.47;;;2.17;;
22439;SDS011;11387;51.612;7.210;2024-02-26T00:51:52;4.78;;;1.77;;
22439;SDS011;11387;51.612;7.210;2024-02-26T00:54:18;5.18;;;1.80;;
22439;SDS011;11387;51.612;7.210;2024-02-26T00:56:44;2.95;;;1.48;;
22439;SDS011;11387;51.612;7.210;2024-02-26T00:59:08;3.45;;;1.63;;
22439;SDS011;11387;51.612;7.210;2024-02-26T01:01:31;5.63;;;1.88;;
22439;SDS011;11387;51.612;7.210;2024-02-26T01:03:55;2.97;;;1.48;;
22439;SDS011;11387;51.612;7.210;2024-02-26T01:06:20;3.80;;;1.80;;
22439;SDS011;11387;51.612;7.210;2024-02-26T01:08:44;4.35;;;1.80;;
22439;SDS011;11387;51.612;7.210;2024-02-26T01:11:14;2.92;;;1.63;;
22439;SDS011;11387;51.612;7.210;2024-02-26T01:13:37;3.25;;;1.15;;
22439;SDS011;11387;51.612;7.210;2024-02-26T01:16:07;5.13;;;1.65;;
22439;SDS011;11387;51.612;7.210;2024-02-26T01:18:34;2.55;;;1.30;;
22439;SDS011;11387;51.612;7.210;2024-02-26T01:21:03;6.15;;;1.73;;
22439;SDS011;11387;51.612;7.210;2024-02-26T01:23:41;5.05;;;1.65;;
22439;SDS011;11387;51.612;7.210;2024-02-26T01:26:08;4.78;;;1.80;;
22439;SDS011;11387;51.612;7.210;2024-02-26T01:28:37;2.72;;;1.58;;
22439;SDS011;11387;51.612;7.210;2024-02-26T01:31:05;5.03;;;1.73;;
22439;SDS011;11387;51.612;7.210;2024-02-26T01:33:32;4.90;;;1.48;;
22439;SDS011;11387;51.612;7.210;2024-02-26T01:35:56;4.22;;;1.67;;
22439;SDS011;11387;51.612;7.210;2024-02-26T01:38:20;5.20;;;2.00;;
22439;SDS011;11387;51.612;7.210;2024-02-26T01:40:45;4.20;;;1.73;;
22439;SDS011;11387;51.612;7.210;2024-02-26T01:43:10;3.15;;;1.60;;
22439;SDS011;11387;51.612;7.210;2024-02-26T01:45:33;4.85;;;1.48;;
22439;SDS011;11387;51.612;7.210;2024-02-26T01:47:57;3.10;;;1.65;;
22439;SDS011;11387;51.612;7.210;2024-02-26T01:50:21;4.22;;;2.00;;
22439;SDS011;11387;51.612;7.210;2024-02-26T01:52:49;3.67;;;1.80;;
22439;SDS011;11387;51.612;7.210;2024-02-26T01:55:13;2.85;;;1.58;;
22439;SDS011;11387;51.612;7.210;2024-02-26T01:57:40;5.45;;;1.83;;
22439;SDS011;11387;51.612;7.210;2024-02-26T02:00:08;4.47;;;1.38;;
22439;SDS011;11387;51.612;7.210;2024-02-26T02:02:33;3.05;;;1.58;;
22439;SDS011;11387;51.612;7.210;2024-02-26T02:04:58;4.38;;;1.90;;
22439;SDS011;11387;51.612;7.210;2024-02-26T02:07:22;2.63;;;1.40;;
22439;SDS011;11387;51.612;7.210;2024-02-26T02:09:47;3.13;;;1.75;;
22439;SDS011;11387;51.612;7.210;2024-02-26T02:12:10;6.30;;;1.40;;
22439;SDS011;11387;51.612;7.210;2024-02-26T02:14:36;5.10;;;1.80;;
22439;SDS011;11387;51.612;7.210;2024-02-26T02:17:06;4.05;;;1.38;;
22439;SDS011;11387;51.612;7.210;2024-02-26T02:19:39;2.97;;;1.48;;
22439;SDS011;11387;51.612;7.210;2024-02-26T02:22:04;3.22;;;1.58;;
22439;SDS011;11387;51.612;7.210;2024-02-26T02:24:28;2.75;;;1.35;;
22439;SDS011;11387;51.612;7.210;2024-02-26T02:26:51;2.60;;;1.48;;
22439;SDS011;11387;51.612;7.210;2024-02-26T02:29:15;2.72;;;1.25;;
22439;SDS011;11387;51.612;7.210;2024-02-26T02:31:42;4.53;;;1.95;;
22439;SDS011;11387;51.612;7.210;2024-02-26T02:34:08;4.72;;;1.90;;
22439;SDS011;11387;51.612;7.210;2024-02-26T02:36:32;3.10;;;1.70;;
22439;SDS011;11387;51.612;7.210;2024-02-26T02:38:57;2.40;;;1.30;;
22439;SDS011;11387;51.612;7.210;2024-02-26T02:41:21;2.30;;;1.38;;
22439;SDS011;11387;51.612;7.210;2024-02-26T02:44:04;3.83;;;1.75;;
22439;SDS011;11387;51.612;7.210;2024-02-26T02:46:28;5.63;;;1.45;;
22439;SDS011;11387;51.612;7.210;2024-02-26T02:48:53;4.03;;;1.65;;
22439;SDS011;11387;51.612;7.210;2024-02-26T02:51:16;3.03;;;1.65;;
22439;SDS011;11387;51.612;7.210;2024-02-26T02:53:58;5.43;;;1.88;;
22439;SDS011;11387;51.612;7.210;2024-02-26T02:56:22;4.10;;;1.90;;
22439;SDS011;11387;51.612;7.210;2024-02-26T02:58:45;5.80;;;2.38;;
22439;SDS011;11387;51.612;7.210;2024-02-26T03:01:09;3.55;;;2.20;;
22439;SDS011;11387;51.612;7.210;2024-02-26T03:03:33;3.33;;;1.90;;
22439;SDS011;11387;51.612;7.210;2024-02-26T03:05:56;3.92;;;2.10;;
22439;SDS011;11387;51.612;7.210;2024-02-26T03:08:20;3.83;;;1.98;;
22439;SDS011;11387;51.612;7.210;2024-02-26T03:10:44;4.55;;;1.92;;
22439;SDS011;11387;51.612;7.210;2024-02-26T03:13:08;3.88;;;1.75;;
22439;SDS011;11387;51.612;7.210;2024-02-26T03:15:31;6.35;;;2.00;;
22439;SDS011;11387;51.612;7.210;2024-02-26T03:17:55;4.07;;;2.08;;
22439;SDS011;11387;51.612;7.210;2024-02-26T03:20:33;5.50;;;1.70;;
22439;SDS011;11387;51.612;7.210;2024-02-26T03:22:56;5.13;;;2.17;;
22439;SDS011;11387;51.612;7.210;2024-02-26T03:25:20;6.25;;;2.45;;
22439;SDS011;11387;51.612;7.210;2024-02-26T03:27:44;2.53;;;1.50;;
22439;SDS011;11387;51.612;7.210;2024-02-26T03:30:09;5.72;;;1.95;;
22439;SDS011;11387;51.612;7.210;2024-02-26T03:32:33;3.33;;;2.05;;
22439;SDS011;11387;51.612;7.210;2024-02-26T03:34:57;4.22;;;2.15;;
22439;SDS011;11387;51.612;7.210;2024-02-26T03:37:20;2.97;;;1.80;;
22439;SDS011;11387;51.612;7.210;2024-02-26T03:39:43;6.15;;;2.75;;
22439;SDS011;11387;51.612;7.210;2024-02-26T03:42:07;4.70;;;1.85;;
22439;SDS011;11387;51.612;7.210;2024-02-26T03:44:32;3.25;;;1.83;;
22439;SDS011;11387;51.612;7.210;2024-02-26T03:46:56;3.13;;;1.60;;
22439;SDS011;11387;51.612;7.210;2024-02-26T03:49:20;2.92;;;1.63;;
22439;SDS011;11387;51.612;7.210;2024-02-26T03:51:44;4.95;;;2.22;;
22439;SDS011;11387;51.612;7.210;2024-02-26T03:54:07;5.00;;;1.88;;
22439;SDS011;11387;51.612;7.210;2024-02-26T03:56:31;5.05;;;1.90;;
22439;SDS011;11387;51.612;7.210;2024-02-26T03:58:54;3.72;;;1.70;;
22439;SDS011;11387;51.612;7.210;2024-02-26T04:01:19;4.15;;;2.20;;
22439;SDS011;11387;51.612;7.210;2024-02-26T04:03:43;3.20;;;1.75;;
22439;SDS011;11387;51.612;7.210;2024-02-26T04:06:08;2.40;;;1.40;;
22439;SDS011;11387;51.612;7.210;2024-02-26T04:08:31;4.90;;;1.80;;
22439;SDS011;11387;51.612;7.210;2024-02-26T04:10:55;3.83;;;1.90;;
22439;SDS011;11387;51.612;7.210;2024-02-26T04:13:19;2.88;;;1.63;;
22439;SDS011;11387;51.612;7.210;2024-02-26T04:15:42;4.90;;;1.70;;
22439;SDS011;11387;51.612;7.210;2024-02-26T04:18:07;7.35;;;1.77;;
22439;SDS011;11387;51.612;7.210;2024-02-26T04:20:31;6.30;;;1.60;;
22439;SDS011;11387;51.612;7.210;2024-02-26T04:22:55;5.15;;;1.92;;
22439;SDS011;11387;51.612;7.210;2024-02-26T04:25:23;6.60;;;2.25;;
22439;SDS011;11387;51.612;7.210;2024-02-26T04:27:47;4.05;;;2.03;;
22439;SDS011;11387;51.612;7.210;2024-02-26T04:30:11;5.70;;;1.88;;
22439;SDS011;11387;51.612;7.210;2024-02-26T04:32:35;2.58;;;1.50;;
22439;SDS011;11387;51.612;7.210;2024-02-26T04:35:00;3.20;;;1.90;;
22439;SDS011;11387;51.612;7.210;2024-02-26T04:37:24;4.40;;;1.80;;
22439;SDS011;11387;51.612;7.210;2024-02-26T04:39:53;5.45;;;2.00;;
22439;SDS011;11387;51.612;7.210;2024-02-26T04:42:16;4.10;;;2.20;;
22439;SDS011;11387;51.612;7.210;2024-02-26T04:44:41;5.03;;;2.17;;
22439;SDS011;11387;51.612;7.210;2024-02-26T04:47:04;2.92;;;2.10;;
22439;SDS011;11387;51.612;7.210;2024-02-26T04:49:29;3.22;;;1.90;;
22439;SDS011;11387;51.612;7.210;2024-02-26T04:51:54;4.97;;;2.35;;
22439;SDS011;11387;51.612;7.210;2024-02-26T04:54:18;4.75;;;2.50;;
22439;SDS011;11387;51.612;7.210;2024-02-26T04:56:42;5.72;;;3.15;;
22439;SDS011;11387;51.612;7.210;2024-02-26T04:59:06;6.05;;;3.00;;
22439;SDS011;11387;51.612;7.210;2024-02-26T05:01:30;4.20;;;3.00;;
22439;SDS011;11387;51.612;7.210;2024-02-26T05:03:53;4.40;;;2.83;;
22439;SDS011;11387;51.612;7.210;2024-02-26T05:06:17;6.45;;;2.67;;
22439;SDS011;11387;51.612;7.210;2024-02-26T05:08:42;3.42;;;2.15;;
22439;SDS011;11387;51.612;7.210;2024-02-26T05:11:06;4.97;;;2.90;;
22439;SDS011;11387;51.612;7.210;2024-02-26T05:13:29;6.75;;;2.92;;
22439;SDS011;11387;51.612;7.210;2024-02-26T05:15:53;4.60;;;2.58;;
22439;SDS011;11387;51.612;7.210;2024-02-26T05:18:17;6.28;;;2.95;;
22439;SDS011;11387;51.612;7.210;2024-02-26T05:20:40;5.82;;;2.35;;
22439;SDS011;11387;51.612;7.210;2024-02-26T05:23:04;3.58;;;2.40;;
22439;SDS011;11387;51.612;7.210;2024-02-26T05:25:29;3.90;;;2.70;;
22439;SDS011;11387;51.612;7.210;2024-02-26T05:27:53;3.70;;;2.47;;
22439;SDS011;11387;51.612;7.210;2024-02-26T05:30:16;5.10;;;2.72;;
22439;SDS011;11387;51.612;7.210;2024-02-26T05:32:40;3.58;;;2.60;;
22439;SDS011;11387;51.612;7.210;2024-02-26T05:35:04;4.70;;;2.40;;
22439;SDS011;11387;51.612;7.210;2024-02-26T05:37:28;4.18;;;2.60;;
22439;SDS011;11387;51.612;7.210;2024-02-26T05:39:52;5.97;;;3.03;;
22439;SDS011;11387;51.612;7.210;2024-02-26T05:42:17;6.60;;;2.35;;
22439;SDS011;11387;51.612;7.210;2024-02-26T05:44:41;5.07;;;2.90;;
22439;SDS011;11387;51.612;7.210;2024-02-26T05:47:04;7.07;;;2.75;;
22439;SDS011;11387;51.612;7.210;2024-02-26T05:49:28;4.68;;;3.10;;
22439;SDS011;11387;51.612;7.210;2024-02-26T05:51:52;5.30;;;2.58;;
22439;SDS011;11387;51.612;7.210;2024-02-26T05:54:15;6.88;;;3.08;;
22439;SDS011;11387;51.612;7.210;2024-02-26T05:56:39;4.53;;;2.97;;
22439;SDS011;11387;51.612;7.210;2024-02-26T05:59:04;7.15;;;3.25;;
22439;SDS011;11387;51.612;7.210;2024-02-26T06:01:27;6.07;;;3.08;;
22439;SDS011;11387;51.612;7.210;2024-02-26T06:03:51;5.78;;;3.38;;
22439;SDS011;11387;51.612;7.210;2024-02-26T06:06:15;7.40;;;3.70;;
22439;SDS011;11387;51.612;7.210;2024-02-26T06:08:39;5.22;;;3.28;;
22439;SDS011;11387;51.612;7.210;2024-02-26T06:11:04;7.80;;;3.95;;
22439;SDS011;11387;51.612;7.210;2024-02-26T06:13:28;6.72;;;4.45;;
22439;SDS011;11387;51.612;7.210;2024-02-26T06:15:54;7.10;;;4.00;;
22439;SDS011;11387;51.612;7.210;2024-02-26T06:18:17;5.45;;;3.55;;
22439;SDS011;11387;51.612;7.210;2024-02-26T06:20:41;9.32;;;4.78;;
22439;SDS011;11387;51.612;7.210;2024-02-26T06:23:05;8.55;;;4.07;;
22439;SDS011;11387;51.612;7.210;2024-02-26T06:25:29;6.28;;;4.13;;
22439;SDS011;11387;51.612;7.210;2024-02-26T06:27:52;4.85;;;3.50;;
22439;SDS011;11387;51.612;7.210;2024-02-26T06:30:17;5.10;;;3.60;;
22439;SDS011;11387;51.612;7.210;2024-02-26T06:32:42;4.97;;;3.33;;
22439;SDS011;11387;51.612;7.210;2024-02-26T06:35:06;6.25;;;3.80;;
22439;SDS011;11387;51.612;7.210;2024-02-26T06:37:30;6.05;;;3.65;;
22439;SDS011;11387;51.612;7.210;2024-02-26T06:39:54;6.55;;;3.70;;
22439;SDS011;11387;51.612;7.210;2024-02-26T06:42:17;5.75;;;3.70;;
22439;SDS011;11387;51.612;7.210;2024-02-26T06:44:41;6.28;;;3.80;;
22439;SDS011;11387;51.612;7.210;2024-02-26T06:47:05;7.25;;;4.20;;
22439;SDS011;11387;51.612;7.210;2024-02-26T06:49:30;7.85;;;3.58;;
22439;SDS011;11387;51.612;7.210;2024-02-26T06:52:12;5.53;;;3.67;;
22439;SDS011;11387;51.612;7.210;2024-02-26T06:54:55;5.38;;;3.58;;
22439;SDS011;11387;51.612;7.210;2024-02-26T06:57:18;5.68;;;3.85;;
22439;SDS011;11387;51.612;7.210;2024-02-26T06:59:42;11.38;;;3.80;;
22439;SDS011;11387;51.612;7.210;2024-02-26T07:02:08;8.50;;;3.80;;
22439;SDS011;11387;51.612;7.210;2024-02-26T07:04:33;6.40;;;3.30;;
22439;SDS011;11387;51.612;7.210;2024-02-26T07:06:58;5.93;;;3.50;;
22439;SDS011;11387;51.612;7.210;2024-02-26T07:09:22;7.85;;;3.75;;
22439;SDS011;11387;51.612;7.210;2024-02-26T07:11:46;8.45;;;4.47;;
22439;SDS011;11387;51.612;7.210;2024-02-26T07:14:09;8.55;;;4.55;;
22439;SDS011;11387;51.612;7.210;2024-02-26T07:16:33;5.18;;;3.22;;
22439;SDS011;11387;51.612;7.210;2024-02-26T07:18:56;9.85;;;4.00;;
22439;SDS011;11387;51.612;7.210;2024-02-26T07:21:21;6.68;;;3.53;;
22439;SDS011;11387;51.612;7.210;2024-02-26T07:23:45;6.53;;;4.25;;
22439;SDS011;11387;51.612;7.210;2024-02-26T07:26:08;7.13;;;3.72;;
22439;SDS011;11387;51.612;7.210;2024-02-26T07:28:34;5.53;;;3.60;;
22439;SDS011;11387;51.612;7.210;2024-02-26T07:30:57;9.13;;;3.63;;
22439;SDS011;11387;51.612;7.210;2024-02-26T07:33:21;9.65;;;3.45;;
22439;SDS011;11387;51.612;7.210;2024-02-26T07:35:45;9.90;;;4.78;;
22439;SDS011;11387;51.612;7.210;2024-02-26T07:38:09;6.47;;;3.25;;
22439;SDS011;11387;51.612;7.210;2024-02-26T07:40:49;6.18;;;3.97;;
22439;SDS011;11387;51.612;7.210;2024-02-26T07:43:23;4.18;;;3.00;;
22439;SDS011;11387;51.612;7.210;2024-02-26T07:45:47;5.65;;;3.50;;
22439;SDS011;11387;51.612;7.210;2024-02-26T07:48:10;5.93;;;3.30;;
22439;SDS011;11387;51.612;7.210;2024-02-26T07:50:36;9.05;;;3.40;;
22439;SDS011;11387;51.612;7.210;2024-02-26T07:53:00;5.35;;;3.13;;
22439;SDS011;11387;51.612;7.210;2024-02-26T07:55:25;4.90;;;3.20;;
22439;SDS011;11387;51.612;7.210;2024-02-26T07:57:48;5.22;;;2.97;;
22439;SDS011;11387;51.612;7.210;2024-02-26T08:00:13;7.00;;;2.90;;
22439;SDS011;11387;51.612;7.210;2024-02-26T08:02:39;10.35;;;3.28;;
22439;SDS011;11387;51.612;7.210;2024-02-26T08:05:02;6.18;;;2.60;;
22439;SDS011;11387;51.612;7.210;2024-02-26T08:07:26;4.93;;;2.85;;
22439;SDS011;11387;51.612;7.210;2024-02-26T08:09:50;9.45;;;3.17;;
22439;SDS011;11387;51.612;7.210;2024-02-26T08:12:15;8.13;;;2.90;;
22439;SDS011;11387;51.612;7.210;2024-02-26T08:14:39;4.63;;;2.75;;
22439;SDS011;11387;51.612;7.210;2024-02-26T08:17:06;5.60;;;3.65;;
22439;SDS011;11387;51.612;7.210;2024-02-26T08:19:30;6.10;;;2.97;;
22439;SDS011;11387;51.612;7.210;2024-02-26T08:21:54;5.57;;;3.05;;
22439;SDS011;11387;51.612;7.210;2024-02-26T08:24:17;4.60;;;2.92;;
22439;SDS011;11387;51.612;7.210;2024-02-26T08:26:41;5.70;;;3.00;;
22439;SDS011;11387;51.612;7.210;2024-02-26T08:29:06;5.95;;;2.50;;
22439;SDS011;11387;51.612;7.210;2024-02-26T08:31:30;5.10;;;2.92;;
22439;SDS011;11387;51.612;7.210;2024-02-26T08:33:53;4.60;;;2.95;;
22439;SDS011;11387;51.612;7.210;2024-02-26T08:36:17;5.15;;;3.13;;
22439;SDS011;11387;51.612;7.210;2024-02-26T08:38:41;7.88;;;3.05;;
22439;SDS011;11387;51.612;7.210;2024-02-26T08:41:04;5.35;;;2.65;;
22439;SDS011;11387;51.612;7.210;2024-02-26T08:43:28;3.83;;;2.17;;
22439;SDS011;11387;51.612;7.210;2024-02-26T08:45:53;3.45;;;2.13;;
22439;SDS011;11387;51.612;7.210;2024-02-26T08:48:17;5.00;;;2.35;;
22439;SDS011;11387;51.612;7.210;2024-02-26T08:50:41;7.43;;;2.97;;
22439;SDS011;11387;51.612;7.210;2024-02-26T08:53:05;6.13;;;3.40;;
22439;SDS011;11387;51.612;7.210;2024-02-26T08:55:29;6.68;;;2.85;;
22439;SDS011;11387;51.612;7.210;2024-02-26T08:57:53;6.15;;;3.10;;
22439;SDS011;11387;51.612;7.210;2024-02-26T09:00:17;4.68;;;2.55;;
22439;SDS011;11387;51.612;7.210;2024-02-26T09:02:44;7.40;;;2.83;;
22439;SDS011;11387;51.612;7.210;2024-02-26T09:05:08;5.93;;;2.65;;
22439;SDS011;11387;51.612;7.210;2024-02-26T09:07:32;6.68;;;2.63;;
22439;SDS011;11387;51.612;7.210;2024-02-26T09:09:55;5.15;;;2.85;;
22439;SDS011;11387;51.612;7.210;2024-02-26T09:12:19;5.65;;;3.17;;
22439;SDS011;11387;51.612;7.210;2024-02-26T09:14:43;4.47;;;2.53;;
22439;SDS011;11387;51.612;7.210;2024-02-26T09:17:07;6.95;;;2.80;;
22439;SDS011;11387;51.612;7.210;2024-02-26T09:19:32;6.40;;;2.65;;
22439;SDS011;11387;51.612;7.210;2024-02-26T09:21:56;5.60;;;2.53;;
22439;SDS011;11387;51.612;7.210;2024-02-26T09:24:20;6.38;;;2.85;;
22439;SDS011;11387;51.612;7.210;2024-02-26T09:26:47;3.83;;;2.42;;
22439;SDS011;11387;51.612;7.210;2024-02-26T09:29:11;3.85;;;2.40;;
22439;SDS011;11387;51.612;7.210;2024-02-26T09:31:34;4.90;;;2.58;;
22439;SDS011;11387;51.612;7.210;2024-02-26T09:33:58;5.50;;;2.40;;
22439;SDS011;11387;51.612;7.210;2024-02-26T09:36:26;5.30;;;1.95;;
22439;SDS011;11387;51.612;7.210;2024-02-26T09:38:53;5.47;;;2.88;;
22439;SDS011;11387;51.612;7.210;2024-02-26T09:41:23;3.35;;;2.03;;
22439;SDS011;11387;51.612;7.210;2024-02-26T09:43:46;10.55;;;3.88;;
22439;SDS011;11387;51.612;7.210;2024-02-26T09:46:15;3.67;;;1.77;;
22439;SDS011;11387;51.612;7.210;2024-02-26T09:48:42;3.30;;;2.00;;
22439;SDS011;11387;51.612;7.210;2024-02-26T09:51:07;6.70;;;2.15;;
22439;SDS011;11387;51.612;7.210;2024-02-26T09:53:35;4.05;;;1.90;;
22439;SDS011;11387;51.612;7.210;2024-02-26T09:56:01;3.33;;;2.05;;
22439;SDS011;11387;51.612;7.210;2024-02-26T09:58:26;3.35;;;1.92;;
22439;SDS011;11387;51.612;7.210;2024-02-26T10:00:53;5.90;;;2.30;;
22439;SDS011;11387;51.612;7.210;2024-02-26T10:03:21;3.47;;;1.95;;
22439;SDS011;11387;51.612;7.210;2024-02-26T10:05:45;7.82;;;2.30;;
22439;SDS011;11387;51.612;7.210;2024-02-26T10:08:09;4.68;;;2.03;;
22439;SDS011;11387;51.612;7.210;2024-02-26T10:10:37;4.35;;;2.35;;
22439;SDS011;11387;51.612;7.210;2024-02-26T10:13:02;4.63;;;2.38;;
22439;SDS011;11387;51.612;7.210;2024-02-26T10:15:31;6.35;;;3.35;;
22439;SDS011;11387;51.612;7.210;2024-02-26T10:17:54;4.85;;;2.00;;
22439;SDS011;11387;51.612;7.210;2024-02-26T10:20:19;4.97;;;1.88;;
22439;SDS011;11387;51.612;7.210;2024-02-26T10:22:44;3.63;;;2.03;;
22439;SDS011;11387;51.612;7.210;2024-02-26T10:25:08;4.13;;;1.95;;
22439;SDS011;11387;51.612;7.210;2024-02-26T10:27:33;3.30;;;1.92;;
22439;SDS011;11387;51.612;7.210;2024-02-26T10:29:57;6.57;;;2.58;;
22439;SDS011;11387;51.612;7.210;2024-02-26T10:32:25;5.72;;;3.42;;
22439;SDS011;11387;51.612;7.210;2024-02-26T10:34:50;4.72;;;2.88;;
22439;SDS011;11387;51.612;7.210;2024-02-26T10:37:18;4.82;;;2.70;;
22439;SDS011;11387;51.612;7.210;2024-02-26T10:39:46;4.47;;;2.30;;
22439;SDS011;11387;51.612;7.210;2024-02-26T10:44:38;4.60;;;3.05;;
22439;SDS011;11387;51.612;7.210;2024-02-26T10:47:10;4.85;;;2.67;;
22439;SDS011;11387;51.612;7.210;2024-02-26T10:49:35;5.13;;;2.72;;
22439;SDS011;11387;51.612;7.210;2024-02-26T10:51:59;11.90;;;2.65;;
22439;SDS011;11387;51.612;7.210;2024-02-26T10:54:24;5.88;;;2.75;;
22439;SDS011;11387;51.612;7.210;2024-02-26T10:56:50;6.10;;;3.38;;
22439;SDS011;11387;51.612;7.210;2024-02-26T10:59:15;4.85;;;3.00;;
22439;SDS011;11387;51.612;7.210;2024-02-26T11:01:44;5.22;;;2.83;;
22439;SDS011;11387;51.612;7.210;2024-02-26T11:04:09;6.72;;;3.47;;
22439;SDS011;11387;51.612;7.210;2024-02-26T11:06:34;8.52;;;3.83;;
22439;SDS011;11387;51.612;7.210;2024-02-26T11:08:58;6.55;;;4.00;;
22439;SDS011;11387;51.612;7.210;2024-02-26T11:11:24;8.77;;;4.57;;
22439;SDS011;11387;51.612;7.210;2024-02-26T11:13:50;6.75;;;4.18;;
22439;SDS011;11387;51.612;7.210;2024-02-26T11:16:14;7.85;;;4.22;;
22439;SDS011;11387;51.612;7.210;2024-02-26T11:18:40;8.65;;;5.13;;
22439;SDS011;11387;51.612;7.210;2024-02-26T11:21:05;8.32;;;4.82;;
22439;SDS011;11387;51.612;7.210;2024-02-26T11:23:31;9.73;;;4.93;;
22439;SDS011;11387;51.612;7.210;2024-02-26T11:25:57;10.20;;;4.90;;
22439;SDS011;11387;51.612;7.210;2024-02-26T11:28:22;11.35;;;5.35;;
22439;SDS011;11387;51.612;7.210;2024-02-26T11:30:50;8.27;;;4.65;;
22439;SDS011;11387;51.612;7.210;2024-02-26T11:33:15;8.88;;;4.55;;
22439;SDS011;11387;51.612;7.210;2024-02-26T11:35:40;8.68;;;5.28;;
22439;SDS011;11387;51.612;7.210;2024-02-26T11:38:07;9.63;;;5.32;;
22439;SDS011;11387;51.612;7.210;2024-02-26T11:40:31;9.35;;;5.35;;
22439;SDS011;11387;51.612;7.210;2024-02-26T11:42:56;6.22;;;4.75;;
22439;SDS011;11387;51.612;7.210;2024-02-26T11:48:12;8.27;;;5.20;;
22439;SDS011;11387;51.612;7.210;2024-02-26T11:50:36;8.07;;;4.93;;
22439;SDS011;11387;51.612;7.210;2024-02-26T11:55:48;8.68;;;5.38;;
22439;SDS011;11387;51.612;7.210;2024-02-26T11:58:12;10.68;;;5.70;;
22439;SDS011;11387;51.612;7.210;2024-02-26T12:00:35;8.10;;;5.22;;
22439;SDS011;11387;51.612;7.210;2024-02-26T12:02:59;8.15;;;5.00;;
22439;SDS011;11387;51.612;7.210;2024-02-26T12:05:30;10.75;;;4.75;;
22439;SDS011;11387;51.612;7.210;2024-02-26T12:07:59;9.40;;;5.55;;
22439;SDS011;11387;51.612;7.210;2024-02-26T12:10:28;9.23;;;4.90;;
22439;SDS011;11387;51.612;7.210;2024-02-26T12:13:00;11.73;;;5.30;;
22439;SDS011;11387;51.612;7.210;2024-02-26T12:15:31;8.82;;;4.38;;
22439;SDS011;11387;51.612;7.210;2024-02-26T12:17:56;7.85;;;4.60;;
22439;SDS011;11387;51.612;7.210;2024-02-26T12:20:20;7.28;;;4.63;;
22439;SDS011;11387;51.612;7.210;2024-02-26T12:22:44;11.23;;;5.15;;
22439;SDS011;11387;51.612;7.210;2024-02-26T12:25:09;7.97;;;5.05;;
22439;SDS011;11387;51.612;7.210;2024-02-26T12:27:34;7.70;;;4.57;;
22439;SDS011;11387;51.612;7.210;2024-02-26T12:29:57;8.25;;;4.60;;
22439;SDS011;11387;51.612;7.210;2024-02-26T12:32:21;7.80;;;4.78;;
22439;SDS011;11387;51.612;7.210;2024-02-26T12:34:45;7.45;;;4.20;;
22439;SDS011;11387;51.612;7.210;2024-02-26T12:37:10;6.93;;;4.22;;
22439;SDS011;11387;51.612;7.210;2024-02-26T12:39:33;8.18;;;4.05;;
22439;SDS011;11387;51.612;7.210;2024-02-26T12:41:58;7.30;;;4.25;;
22439;SDS011;11387;51.612;7.210;2024-02-26T12:44:25;6.68;;;3.88;;
22439;SDS011;11387;51.612;7.210;2024-02-26T12:46:49;6.53;;;3.80;;
22439;SDS011;11387;51.612;7.210;2024-02-26T12:49:14;6.97;;;3.60;;
22439;SDS011;11387;51.612;7.210;2024-02-26T12:51:40;6.75;;;4.00;;
22439;SDS011;11387;51.612;7.210;2024-02-26T12:54:04;6.35;;;4.35;;
22439;SDS011;11387;51.612;7.210;2024-02-26T12:56:29;9.18;;;4.40;;
22439;SDS011;11387;51.612;7.210;2024-02-26T12:58:54;7.78;;;4.35;;
22439;SDS011;11387;51.612;7.210;2024-02-26T13:01:20;8.35;;;5.25;;
22439;SDS011;11387;51.612;7.210;2024-02-26T13:03:46;6.60;;;4.13;;
22439;SDS011;11387;51.612;7.210;2024-02-26T13:06:15;7.97;;;4.57;;
22439;SDS011;11387;51.612;7.210;2024-02-26T13:08:39;7.38;;;3.13;;
22439;SDS011;11387;51.612;7.210;2024-02-26T13:11:03;8.00;;;3.80;;
22439;SDS011;11387;51.612;7.210;2024-02-26T13:13:26;10.02;;;3.60;;
22439;SDS011;11387;51.612;7.210;2024-02-26T13:16:00;5.57;;;3.05;;
22439;SDS011;11387;51.612;7.210;2024-02-26T13:18:27;7.00;;;3.30;;
22439;SDS011;11387;51.612;7.210;2024-02-26T13:20:53;7.75;;;3.55;;
22439;SDS011;11387;51.612;7.210;2024-02-26T13:23:18;9.43;;;2.83;;
22439;SDS011;11387;51.612;7.210;2024-02-26T13:25:43;6.53;;;3.28;;
22439;SDS011;11387;51.612;7.210;2024-02-26T13:28:08;3.80;;;2.65;;
22439;SDS011;11387;51.612;7.210;2024-02-26T13:30:32;6.32;;;3.10;;
22439;SDS011;11387;51.612;7.210;2024-02-26T13:32:56;6.07;;;2.72;;
22439;SDS011;11387;51.612;7.210;2024-02-26T13:35:33;6.60;;;3.33;;
22439;SDS011;11387;51.612;7.210;2024-02-26T13:37:57;8.38;;;2.90;;
22439;SDS011;11387;51.612;7.210;2024-02-26T13:40:20;5.22;;;3.13;;
22439;SDS011;11387;51.612;7.210;2024-02-26T13:42:44;4.55;;;2.80;;
22439;SDS011;11387;51.612;7.210;2024-02-26T13:45:10;5.72;;;3.30;;
22439;SDS011;11387;51.612;7.210;2024-02-26T13:47:34;5.57;;;2.85;;
22439;SDS011;11387;51.612;7.210;2024-02-26T13:49:58;6.70;;;3.28;;
22439;SDS011;11387;51.612;7.210;2024-02-26T13:52:24;4.40;;;2.58;;
22439;SDS011;11387;51.612;7.210;2024-02-26T13:54:48;4.85;;;3.00;;
22439;SDS011;11387;51.612;7.210;2024-02-26T13:57:12;7.22;;;4.22;;
22439;SDS011;11387;51.612;7.210;2024-02-26T13:59:36;8.60;;;4.28;;
22439;SDS011;11387;51.612;7.210;2024-02-26T14:02:04;4.88;;;2.92;;
22439;SDS011;11387;51.612;7.210;2024-02-26T14:04:28;5.18;;;2.95;;
22439;SDS011;11387;51.612;7.210;2024-02-26T14:06:52;5.72;;;3.15;;
22439;SDS011;11387;51.612;7.210;2024-02-26T14:09:18;5.80;;;3.42;;
22439;SDS011;11387;51.612;7.210;2024-02-26T14:11:46;5.50;;;3.13;;
22439;SDS011;11387;51.612;7.210;2024-02-26T14:14:11;10.15;;;2.85;;
22439;SDS011;11387;51.612;7.210;2024-02-26T14:16:34;5.45;;;2.65;;
22439;SDS011;11387;51.612;7.210;2024-02-26T14:18:58;4.60;;;3.20;;
22439;SDS011;11387;51.612;7.210;2024-02-26T14:21:22;5.20;;;2.97;;
22439;SDS011;11387;51.612;7.210;2024-02-26T14:23:46;5.28;;;2.22;;
22439;SDS011;11387;51.612;7.210;2024-02-26T14:26:11;4.40;;;2.58;;
22439;SDS011;11387;51.612;7.210;2024-02-26T14:28:35;4.88;;;2.65;;
22439;SDS011;11387;51.612;7.210;2024-02-26T14:30:58;5.18;;;2.63;;
22439;SDS011;11387;51.612;7.210;2024-02-26T14:33:22;5.85;;;2.65;;
22439;SDS011;11387;51.612;7.210;2024-02-26T14:35:46;5.10;;;2.80;;
22439;SDS011;11387;51.612;7.210;2024-02-26T14:38:10;4.80;;;2.78;;
22439;SDS011;11387;51.612;7.210;2024-02-26T14:40:34;5.22;;;2.70;;
22439;SDS011;11387;51.612;7.210;2024-02-26T14:42:59;8.23;;;3.05;;